sensor_id;sensor_type;location;lat;lon;timestamp;temperature;humidity
35497;DHT22;21609;49.298;6.844;2023-03-01T00:01:55;15.10;49.80
35497;DHT22;21609;49.298;6.844;2023-03-01T00:04:21;15.10;49.80
35497;DHT22;21609;49.298;6.844;2023-03-01T00:06:46;15.10;49.80
35497;DHT22;21609;49.298;6.844;2023-03-01T00:09:14;15.10;49.80
35497;DHT22;21609;49.298;6.844;2023-03-01T00:11:39;15.10;49.80
35497;DHT22;21609;49.298;6.844;2023-03-01T00:14:05;15.10;49.80
35497;DHT22;21609;49.298;6.844;2023-03-01T00:16:34;15.10;49.80
35497;DHT22;21609;49.298;6.844;2023-03-01T00:19:00;15.00;49.80
35497;DHT22;21609;49.298;6.844;2023-03-01T00:21:27;15.10;49.80
35497;DHT22;21609;49.298;6.844;2023-03-01T00:23:53;15.00;49.80
35497;DHT22;21609;49.298;6.844;2023-03-01T00:26:20;15.00;49.80
35497;DHT22;21609;49.298;6.844;2023-03-01T00:28:46;15.10;49.80
35497;DHT22;21609;49.298;6.844;2023-03-01T00:31:18;15.00;49.80
35497;DHT22;21609;49.298;6.844;2023-03-01T00:33:45;15.10;49.80
35497;DHT22;21609;49.298;6.844;2023-03-01T00:36:12;15.00;49.80
35497;DHT22;21609;49.298;6.844;2023-03-01T00:38:41;15.00;49.80
35497;DHT22;21609;49.298;6.844;2023-03-01T00:41:09;15.00;49.80
35497;DHT22;21609;49.298;6.844;2023-03-01T00:43:35;15.00;50.40
35497;DHT22;21609;49.298;6.844;2023-03-01T00:46:06;15.00;49.80
35497;DHT22;21609;49.298;6.844;2023-03-01T00:48:33;15.00;49.80
35497;DHT22;21609;49.298;6.844;2023-03-01T00:51:16;15.00;49.80
35497;DHT22;21609;49.298;6.844;2023-03-01T00:53:42;15.00;49.80
35497;DHT22;21609;49.298;6.844;2023-03-01T00:56:10;15.00;49.80
35497;DHT22;21609;49.298;6.844;2023-03-01T00:58:36;15.00;49.90
35497;DHT22;21609;49.298;6.844;2023-03-01T01:01:08;15.00;49.80
35497;DHT22;21609;49.298;6.844;2023-03-01T01:03:51;15.00;49.80
35497;DHT22;21609;49.298;6.844;2023-03-01T01:06:20;15.00;49.90
35497;DHT22;21609;49.298;6.844;2023-03-01T01:08:47;15.00;49.80
35497;DHT22;21609;49.298;6.844;2023-03-01T01:11:13;15.00;49.80
35497;DHT22;21609;49.298;6.844;2023-03-01T01:13:39;15.00;49.80
35497;DHT22;21609;49.298;6.844;2023-03-01T01:16:05;14.90;49.80
35497;DHT22;21609;49.298;6.844;2023-03-01T01:18:31;15.00;49.90
35497;DHT22;21609;49.298;6.844;2023-03-01T01:20:57;15.00;49.90
35497;DHT22;21609;49.298;6.844;2023-03-01T01:23:22;15.00;49.90
35497;DHT22;21609;49.298;6.844;2023-03-01T01:25:48;15.00;49.90
35497;DHT22;21609;49.298;6.844;2023-03-01T01:28:14;15.00;49.90
35497;DHT22;21609;49.298;6.844;2023-03-01T01:30:39;14.90;49.80
35497;DHT22;21609;49.298;6.844;2023-03-01T01:33:05;14.90;49.80
35497;DHT22;21609;49.298;6.844;2023-03-01T01:35:30;14.90;49.90
35497;DHT22;21609;49.298;6.844;2023-03-01T01:37:56;15.00;49.90
35497;DHT22;21609;49.298;6.844;2023-03-01T01:40:21;15.00;49.90
35497;DHT22;21609;49.298;6.844;2023-03-01T01:42:47;14.90;49.80
35497;DHT22;21609;49.298;6.844;2023-03-01T01:45:35;14.90;49.80
35497;DHT22;21609;49.298;6.844;2023-03-01T01:48:05;14.90;49.80
35497;DHT22;21609;49.298;6.844;2023-03-01T01:50:32;15.00;49.90
35497;DHT22;21609;49.298;6.844;2023-03-01T01:53:05;14.90;49.90
35497;DHT22;21609;49.298;6.844;2023-03-01T01:55:32;14.90;49.90
35497;DHT22;21609;49.298;6.844;2023-03-01T01:58:01;14.90;49.90
35497;DHT22;21609;49.298;6.844;2023-03-01T02:00:29;14.90;49.80
35497;DHT22;21609;49.298;6.844;2023-03-01T02:03:00;14.90;49.90
35497;DHT22;21609;49.298;6.844;2023-03-01T02:05:47;15.00;49.90
35497;DHT22;21609;49.298;6.844;2023-03-01T02:08:17;14.90;49.80
35497;DHT22;21609;49.298;6.844;2023-03-01T02:10:44;14.90;49.90
35497;DHT22;21609;49.298;6.844;2023-03-01T02:13:10;14.90;49.80
35497;DHT22;21609;49.298;6.844;2023-03-01T02:15:38;14.90;49.80
35497;DHT22;21609;49.298;6.844;2023-03-01T02:18:05;14.90;49.80
35497;DHT22;21609;49.298;6.844;2023-03-01T02:23:38;14.90;49.80
35497;DHT22;21609;49.298;6.844;2023-03-01T02:28:50;14.90;49.80
35497;DHT22;21609;49.298;6.844;2023-03-01T02:31:18;14.90;49.80
35497;DHT22;21609;49.298;6.844;2023-03-01T02:34:04;14.90;49.80
35497;DHT22;21609;49.298;6.844;2023-03-01T02:36:53;14.90;49.80
35497;DHT22;21609;49.298;6.844;2023-03-01T02:39:31;14.90;49.80
35497;DHT22;21609;49.298;6.844;2023-03-01T02:41:58;14.90;49.80
35497;DHT22;21609;49.298;6.844;2023-03-01T02:44:25;14.90;49.80
35497;DHT22;21609;49.298;6.844;2023-03-01T02:46:53;14.90;49.80
35497;DHT22;21609;49.298;6.844;2023-03-01T02:49:37;14.90;49.80
35497;DHT22;21609;49.298;6.844;2023-03-01T02:55:17;14.90;49.80
35497;DHT22;21609;49.298;6.844;2023-03-01T02:57:45;14.90;49.80
35497;DHT22;21609;49.298;6.844;2023-03-01T03:00:13;14.90;49.90
35497;DHT22;21609;49.298;6.844;2023-03-01T03:02:46;14.90;49.80
35497;DHT22;21609;49.298;6.844;2023-03-01T03:05:15;14.90;49.90
35497;DHT22;21609;49.298;6.844;2023-03-01T03:07:43;14.90;49.90
35497;DHT22;21609;49.298;6.844;2023-03-01T03:10:19;14.90;50.40
35497;DHT22;21609;49.298;6.844;2023-03-01T03:12:53;14.90;49.90
35497;DHT22;21609;49.298;6.844;2023-03-01T03:15:20;14.90;49.80
35497;DHT22;21609;49.298;6.844;2023-03-01T03:17:46;14.90;50.00
35497;DHT22;21609;49.298;6.844;2023-03-01T03:20:14;14.90;49.90
35497;DHT22;21609;49.298;6.844;2023-03-01T03:22:45;14.90;49.80
35497;DHT22;21609;49.298;6.844;2023-03-01T03:25:11;14.90;49.90
35497;DHT22;21609;49.298;6.844;2023-03-01T03:27:37;14.80;49.90
35497;DHT22;21609;49.298;6.844;2023-03-01T03:30:05;14.80;49.90
35497;DHT22;21609;49.298;6.844;2023-03-01T03:32:38;14.80;49.90
35497;DHT22;21609;49.298;6.844;2023-03-01T03:35:05;14.80;49.80
35497;DHT22;21609;49.298;6.844;2023-03-01T03:37:41;14.80;49.90
35497;DHT22;21609;49.298;6.844;2023-03-01T03:40:26;14.80;49.90
35497;DHT22;21609;49.298;6.844;2023-03-01T03:42:52;14.80;49.90
35497;DHT22;21609;49.298;6.844;2023-03-01T03:45:18;14.80;49.90
35497;DHT22;21609;49.298;6.844;2023-03-01T03:47:44;14.80;49.90
35497;DHT22;21609;49.298;6.844;2023-03-01T03:50:11;14.80;49.90
35497;DHT22;21609;49.298;6.844;2023-03-01T03:52:37;14.80;49.90
35497;DHT22;21609;49.298;6.844;2023-03-01T03:55:03;14.80;49.90
35497;DHT22;21609;49.298;6.844;2023-03-01T03:57:29;14.80;49.90
35497;DHT22;21609;49.298;6.844;2023-03-01T03:59:54;14.80;49.90
35497;DHT22;21609;49.298;6.844;2023-03-01T04:02:20;14.80;49.90
35497;DHT22;21609;49.298;6.844;2023-03-01T04:04:48;14.80;49.90
35497;DHT22;21609;49.298;6.844;2023-03-01T04:07:15;14.80;49.90
35497;DHT22;21609;49.298;6.844;2023-03-01T04:09:42;14.80;49.90
35497;DHT22;21609;49.298;6.844;2023-03-01T04:12:08;14.80;49.90
35497;DHT22;21609;49.298;6.844;2023-03-01T04:14:34;14.70;49.80
35497;DHT22;21609;49.298;6.844;2023-03-01T04:17:00;14.80;49.90
35497;DHT22;21609;49.298;6.844;2023-03-01T04:19:26;14.70;49.90
35497;DHT22;21609;49.298;6.844;2023-03-01T04:21:52;14.80;49.90
35497;DHT22;21609;49.298;6.844;2023-03-01T04:24:18;14.70;49.90
35497;DHT22;21609;49.298;6.844;2023-03-01T04:26:44;14.80;49.90
35497;DHT22;21609;49.298;6.844;2023-03-01T04:29:09;14.80;49.90
35497;DHT22;21609;49.298;6.844;2023-03-01T04:31:35;14.70;49.80
35497;DHT22;21609;49.298;6.844;2023-03-01T04:34:01;14.70;49.90
35497;DHT22;21609;49.298;6.844;2023-03-01T04:36:28;14.80;49.90
35497;DHT22;21609;49.298;6.844;2023-03-01T04:38:54;14.70;49.90
35497;DHT22;21609;49.298;6.844;2023-03-01T04:41:23;14.80;49.90
35497;DHT22;21609;49.298;6.844;2023-03-01T04:43:48;14.70;49.90
35497;DHT22;21609;49.298;6.844;2023-03-01T04:46:18;14.80;49.90
35497;DHT22;21609;49.298;6.844;2023-03-01T04:48:45;14.70;49.90
35497;DHT22;21609;49.298;6.844;2023-03-01T04:51:12;14.70;49.90
35497;DHT22;21609;49.298;6.844;2023-03-01T04:53:42;14.70;49.90
35497;DHT22;21609;49.298;6.844;2023-03-01T04:56:08;14.70;49.90
35497;DHT22;21609;49.298;6.844;2023-03-01T04:58:33;14.70;49.90
35497;DHT22;21609;49.298;6.844;2023-03-01T05:00:59;14.70;49.90
35497;DHT22;21609;49.298;6.844;2023-03-01T05:03:24;14.70;49.90
35497;DHT22;21609;49.298;6.844;2023-03-01T05:05:51;14.70;49.90
35497;DHT22;21609;49.298;6.844;2023-03-01T05:08:17;14.70;49.90
35497;DHT22;21609;49.298;6.844;2023-03-01T05:10:50;14.70;49.90
35497;DHT22;21609;49.298;6.844;2023-03-01T05:13:16;14.70;49.90
35497;DHT22;21609;49.298;6.844;2023-03-01T05:15:57;14.70;50.00
35497;DHT22;21609;49.298;6.844;2023-03-01T05:18:24;14.70;50.00
35497;DHT22;21609;49.298;6.844;2023-03-01T05:20:54;14.70;49.90
35497;DHT22;21609;49.298;6.844;2023-03-01T05:23:24;14.70;49.90
35497;DHT22;21609;49.298;6.844;2023-03-01T05:25:50;14.70;49.90
35497;DHT22;21609;49.298;6.844;2023-03-01T05:28:19;14.70;49.90
35497;DHT22;21609;49.298;6.844;2023-03-01T05:30:46;14.70;49.90
35497;DHT22;21609;49.298;6.844;2023-03-01T05:33:12;14.70;49.90
35497;DHT22;21609;49.298;6.844;2023-03-01T05:35:42;14.70;49.90
35497;DHT22;21609;49.298;6.844;2023-03-01T05:38:09;14.70;50.00
35497;DHT22;21609;49.298;6.844;2023-03-01T05:40:38;14.60;49.90
35497;DHT22;21609;49.298;6.844;2023-03-01T05:43:04;14.60;49.90
35497;DHT22;21609;49.298;6.844;2023-03-01T05:45:31;14.60;49.90
35497;DHT22;21609;49.298;6.844;2023-03-01T05:47:58;14.60;49.90
35497;DHT22;21609;49.298;6.844;2023-03-01T05:50:28;14.60;49.90
35497;DHT22;21609;49.298;6.844;2023-03-01T05:52:58;14.60;49.90
35497;DHT22;21609;49.298;6.844;2023-03-01T05:55:24;14.60;49.90
35497;DHT22;21609;49.298;6.844;2023-03-01T05:57:50;14.60;49.90
35497;DHT22;21609;49.298;6.844;2023-03-01T06:00:18;14.60;49.90
35497;DHT22;21609;49.298;6.844;2023-03-01T06:02:44;14.60;50.00
35497;DHT22;21609;49.298;6.844;2023-03-01T06:05:12;14.60;49.90
35497;DHT22;21609;49.298;6.844;2023-03-01T06:07:38;14.60;49.90
35497;DHT22;21609;49.298;6.844;2023-03-01T06:10:05;14.60;50.00
35497;DHT22;21609;49.298;6.844;2023-03-01T06:12:32;14.60;49.90
35497;DHT22;21609;49.298;6.844;2023-03-01T06:14:58;14.60;49.90
35497;DHT22;21609;49.298;6.844;2023-03-01T06:17:24;14.60;49.90
35497;DHT22;21609;49.298;6.844;2023-03-01T06:19:49;14.60;49.90
35497;DHT22;21609;49.298;6.844;2023-03-01T06:22:15;14.60;49.90
35497;DHT22;21609;49.298;6.844;2023-03-01T06:24:40;14.60;49.80
35497;DHT22;21609;49.298;6.844;2023-03-01T06:27:06;14.60;50.50
35497;DHT22;21609;49.298;6.844;2023-03-01T06:29:31;14.60;49.90
35497;DHT22;21609;49.298;6.844;2023-03-01T06:31:57;14.60;49.90
35497;DHT22;21609;49.298;6.844;2023-03-01T06:34:22;14.60;49.90
35497;DHT22;21609;49.298;6.844;2023-03-01T06:36:48;14.60;49.80
35497;DHT22;21609;49.298;6.844;2023-03-01T06:39:13;14.60;49.90
35497;DHT22;21609;49.298;6.844;2023-03-01T06:41:39;14.60;49.90
35497;DHT22;21609;49.298;6.844;2023-03-01T06:44:05;14.60;49.90
35497;DHT22;21609;49.298;6.844;2023-03-01T06:46:30;14.60;49.90
35497;DHT22;21609;49.298;6.844;2023-03-01T06:48:56;14.60;49.90
35497;DHT22;21609;49.298;6.844;2023-03-01T06:51:21;14.60;49.90
35497;DHT22;21609;49.298;6.844;2023-03-01T06:53:47;14.60;49.90
35497;DHT22;21609;49.298;6.844;2023-03-01T06:56:12;14.60;49.90
35497;DHT22;21609;49.298;6.844;2023-03-01T06:58:38;14.60;49.90
35497;DHT22;21609;49.298;6.844;2023-03-01T07:01:07;14.60;49.90
35497;DHT22;21609;49.298;6.844;2023-03-01T07:03:33;14.60;49.90
35497;DHT22;21609;49.298;6.844;2023-03-01T07:05:59;14.70;50.00
35497;DHT22;21609;49.298;6.844;2023-03-01T07:08:25;14.70;50.00
35497;DHT22;21609;49.298;6.844;2023-03-01T07:11:00;14.70;50.00
35497;DHT22;21609;49.298;6.844;2023-03-01T07:13:27;14.70;50.10
35497;DHT22;21609;49.298;6.844;2023-03-01T07:15:53;14.70;50.00
35497;DHT22;21609;49.298;6.844;2023-03-01T07:18:18;14.70;50.00
35497;DHT22;21609;49.298;6.844;2023-03-01T07:20:44;14.80;50.00
35497;DHT22;21609;49.298;6.844;2023-03-01T07:23:09;14.70;49.90
35497;DHT22;21609;49.298;6.844;2023-03-01T07:25:35;14.80;50.00
35497;DHT22;21609;49.298;6.844;2023-03-01T07:28:02;14.80;50.00
35497;DHT22;21609;49.298;6.844;2023-03-01T07:30:27;14.80;50.00
35497;DHT22;21609;49.298;6.844;2023-03-01T07:32:54;14.80;50.00
35497;DHT22;21609;49.298;6.844;2023-03-01T07:35:21;14.90;50.10
35497;DHT22;21609;49.298;6.844;2023-03-01T07:37:46;14.90;50.10
35497;DHT22;21609;49.298;6.844;2023-03-01T07:40:12;14.90;50.20
35497;DHT22;21609;49.298;6.844;2023-03-01T07:42:38;14.90;50.20
35497;DHT22;21609;49.298;6.844;2023-03-01T07:45:04;14.90;50.20
35497;DHT22;21609;49.298;6.844;2023-03-01T07:47:30;14.90;50.20
35497;DHT22;21609;49.298;6.844;2023-03-01T07:49:56;14.90;50.20
35497;DHT22;21609;49.298;6.844;2023-03-01T07:52:21;14.90;50.20
35497;DHT22;21609;49.298;6.844;2023-03-01T07:54:47;14.90;49.70
35497;DHT22;21609;49.298;6.844;2023-03-01T07:57:13;14.90;50.20
35497;DHT22;21609;49.298;6.844;2023-03-01T07:59:38;15.00;50.20
35497;DHT22;21609;49.298;6.844;2023-03-01T08:02:04;15.00;50.10
35497;DHT22;21609;49.298;6.844;2023-03-01T08:04:29;15.00;50.70
35497;DHT22;21609;49.298;6.844;2023-03-01T08:06:55;15.10;50.20
35497;DHT22;21609;49.298;6.844;2023-03-01T08:09:21;15.10;50.20
35497;DHT22;21609;49.298;6.844;2023-03-01T08:11:47;15.10;50.20
35497;DHT22;21609;49.298;6.844;2023-03-01T08:14:12;15.20;50.20
35497;DHT22;21609;49.298;6.844;2023-03-01T08:16:38;15.20;50.20
35497;DHT22;21609;49.298;6.844;2023-03-01T08:19:09;15.20;50.20
35497;DHT22;21609;49.298;6.844;2023-03-01T08:21:35;15.20;50.20
35497;DHT22;21609;49.298;6.844;2023-03-01T08:24:05;15.20;50.00
35497;DHT22;21609;49.298;6.844;2023-03-01T08:26:31;15.30;50.10
35497;DHT22;21609;49.298;6.844;2023-03-01T08:28:57;15.30;50.10
35497;DHT22;21609;49.298;6.844;2023-03-01T08:31:25;15.30;50.00
35497;DHT22;21609;49.298;6.844;2023-03-01T08:33:54;15.40;50.10
35497;DHT22;21609;49.298;6.844;2023-03-01T08:36:24;15.50;49.90
35497;DHT22;21609;49.298;6.844;2023-03-01T08:38:50;15.40;49.70
35497;DHT22;21609;49.298;6.844;2023-03-01T08:41:16;15.30;50.50
35497;DHT22;21609;49.298;6.844;2023-03-01T08:43:41;15.30;49.90
35497;DHT22;21609;49.298;6.844;2023-03-01T08:46:07;15.70;50.00
35497;DHT22;21609;49.298;6.844;2023-03-01T08:48:32;16.00;49.20
35497;DHT22;21609;49.298;6.844;2023-03-01T08:51:07;16.00;49.60
35497;DHT22;21609;49.298;6.844;2023-03-01T08:53:33;16.40;49.20
35497;DHT22;21609;49.298;6.844;2023-03-01T08:56:02;16.40;49.00
35497;DHT22;21609;49.298;6.844;2023-03-01T08:58:28;16.60;49.30
35497;DHT22;21609;49.298;6.844;2023-03-01T09:00:54;16.60;49.30
35497;DHT22;21609;49.298;6.844;2023-03-01T09:03:22;16.60;49.60
35497;DHT22;21609;49.298;6.844;2023-03-01T09:05:47;16.50;49.80
35497;DHT22;21609;49.298;6.844;2023-03-01T09:08:14;16.30;50.00
35497;DHT22;21609;49.298;6.844;2023-03-01T09:10:40;16.20;50.10
35497;DHT22;21609;49.298;6.844;2023-03-01T09:13:05;16.10;50.20
35497;DHT22;21609;49.298;6.844;2023-03-01T09:15:31;16.10;50.30
35497;DHT22;21609;49.298;6.844;2023-03-01T09:17:57;16.10;50.40
35497;DHT22;21609;49.298;6.844;2023-03-01T09:20:24;16.10;51.00
35497;DHT22;21609;49.298;6.844;2023-03-01T09:22:49;16.10;50.50
35497;DHT22;21609;49.298;6.844;2023-03-01T09:25:15;16.10;50.40
35497;DHT22;21609;49.298;6.844;2023-03-01T09:27:41;16.10;50.40
35497;DHT22;21609;49.298;6.844;2023-03-01T09:30:07;16.10;50.30
35497;DHT22;21609;49.298;6.844;2023-03-01T09:32:33;16.10;50.90
35497;DHT22;21609;49.298;6.844;2023-03-01T09:34:58;16.10;50.30
35497;DHT22;21609;49.298;6.844;2023-03-01T09:37:29;16.10;50.40
35497;DHT22;21609;49.298;6.844;2023-03-01T09:39:55;16.10;50.30
35497;DHT22;21609;49.298;6.844;2023-03-01T09:42:20;16.10;50.30
35497;DHT22;21609;49.298;6.844;2023-03-01T09:44:56;16.20;50.30
35497;DHT22;21609;49.298;6.844;2023-03-01T09:47:41;16.10;50.30
35497;DHT22;21609;49.298;6.844;2023-03-01T09:50:20;16.10;50.40
35497;DHT22;21609;49.298;6.844;2023-03-01T09:52:54;16.20;50.40
35497;DHT22;21609;49.298;6.844;2023-03-01T09:55:34;16.20;50.30
35497;DHT22;21609;49.298;6.844;2023-03-01T10:01:20;16.20;50.30
35497;DHT22;21609;49.298;6.844;2023-03-01T10:07:45;16.20;50.60
35497;DHT22;21609;49.298;6.844;2023-03-01T10:09:49;16.20;50.50
35497;DHT22;21609;49.298;6.844;2023-03-01T10:12:18;16.20;50.40
35497;DHT22;21609;49.298;6.844;2023-03-01T10:17:48;16.30;50.50
35497;DHT22;21609;49.298;6.844;2023-03-01T10:22:49;16.40;50.30
35497;DHT22;21609;49.298;6.844;2023-03-01T10:30:44;16.50;50.30
35497;DHT22;21609;49.298;6.844;2023-03-01T10:33:32;16.50;50.20
35497;DHT22;21609;49.298;6.844;2023-03-01T10:35:59;16.60;50.20
35497;DHT22;21609;49.298;6.844;2023-03-01T10:38:25;16.60;50.20
35497;DHT22;21609;49.298;6.844;2023-03-01T10:41:00;16.70;50.20
35497;DHT22;21609;49.298;6.844;2023-03-01T10:43:57;16.70;50.20
35497;DHT22;21609;49.298;6.844;2023-03-01T10:46:30;16.70;50.30
35497;DHT22;21609;49.298;6.844;2023-03-01T10:51:40;16.80;50.20
35497;DHT22;21609;49.298;6.844;2023-03-01T10:54:33;16.80;50.10
35497;DHT22;21609;49.298;6.844;2023-03-01T10:57:03;16.90;50.10
35497;DHT22;21609;49.298;6.844;2023-03-01T10:59:30;16.90;50.10
35497;DHT22;21609;49.298;6.844;2023-03-01T11:02:17;17.00;50.20
35497;DHT22;21609;49.298;6.844;2023-03-01T11:05:00;17.10;50.20
35497;DHT22;21609;49.298;6.844;2023-03-01T11:07:27;17.10;50.20
35497;DHT22;21609;49.298;6.844;2023-03-01T11:09:52;17.10;50.00
35497;DHT22;21609;49.298;6.844;2023-03-01T11:12:19;17.20;50.20
35497;DHT22;21609;49.298;6.844;2023-03-01T11:14:47;17.20;50.10
35497;DHT22;21609;49.298;6.844;2023-03-01T11:17:28;17.20;50.10
35497;DHT22;21609;49.298;6.844;2023-03-01T11:20:10;17.30;50.10
35497;DHT22;21609;49.298;6.844;2023-03-01T11:22:48;17.30;50.30
35497;DHT22;21609;49.298;6.844;2023-03-01T11:25:17;17.40;50.00
35497;DHT22;21609;49.298;6.844;2023-03-01T11:27:45;17.40;50.00
35497;DHT22;21609;49.298;6.844;2023-03-01T11:30:21;17.40;49.90
35497;DHT22;21609;49.298;6.844;2023-03-01T11:33:04;17.50;49.90
35497;DHT22;21609;49.298;6.844;2023-03-01T11:35:32;17.60;49.90
35497;DHT22;21609;49.298;6.844;2023-03-01T11:56:50;18.00;49.90
35497;DHT22;21609;49.298;6.844;2023-03-01T11:59:50;18.10;50.00
35497;DHT22;21609;49.298;6.844;2023-03-01T12:10:28;18.30;49.70
35497;DHT22;21609;49.298;6.844;2023-03-01T12:13:13;18.40;49.70
35497;DHT22;21609;49.298;6.844;2023-03-01T12:21:55;18.60;49.50
35497;DHT22;21609;49.298;6.844;2023-03-01T12:29:42;18.80;49.50
35497;DHT22;21609;49.298;6.844;2023-03-01T12:44:01;19.10;49.20
35497;DHT22;21609;49.298;6.844;2023-03-01T12:46:41;19.20;49.10
35497;DHT22;21609;49.298;6.844;2023-03-01T12:49:21;19.30;49.10
35497;DHT22;21609;49.298;6.844;2023-03-01T12:51:58;19.40;49.00
35497;DHT22;21609;49.298;6.844;2023-03-01T12:54:28;19.40;48.90
35497;DHT22;21609;49.298;6.844;2023-03-01T12:56:57;19.50;49.00
35497;DHT22;21609;49.298;6.844;2023-03-01T12:59:38;19.60;49.00
35497;DHT22;21609;49.298;6.844;2023-03-01T13:02:22;19.60;48.80
35497;DHT22;21609;49.298;6.844;2023-03-01T13:05:00;19.70;48.80
35497;DHT22;21609;49.298;6.844;2023-03-01T13:07:30;19.80;48.80
35497;DHT22;21609;49.298;6.844;2023-03-01T13:20:50;20.10;48.50
35497;DHT22;21609;49.298;6.844;2023-03-01T13:26:00;20.10;48.70
35497;DHT22;21609;49.298;6.844;2023-03-01T13:28:54;20.20;48.50
35497;DHT22;21609;49.298;6.844;2023-03-01T13:33:54;20.30;48.50
35497;DHT22;21609;49.298;6.844;2023-03-01T13:44:36;20.50;48.30
35497;DHT22;21609;49.298;6.844;2023-03-01T13:49:55;20.60;48.40
35497;DHT22;21609;49.298;6.844;2023-03-01T13:52:50;20.60;48.20
35497;DHT22;21609;49.298;6.844;2023-03-01T13:57:49;20.70;48.30
35497;DHT22;21609;49.298;6.844;2023-03-01T14:00:34;20.80;48.30
35497;DHT22;21609;49.298;6.844;2023-03-01T14:03:15;20.80;48.00
35497;DHT22;21609;49.298;6.844;2023-03-01T14:05:44;20.90;48.00
35497;DHT22;21609;49.298;6.844;2023-03-01T14:08:24;20.90;48.20
35497;DHT22;21609;49.298;6.844;2023-03-01T14:19:18;21.10;48.00
35497;DHT22;21609;49.298;6.844;2023-03-01T14:21:46;21.10;48.00
35497;DHT22;21609;49.298;6.844;2023-03-01T14:24:21;21.20;48.00
35497;DHT22;21609;49.298;6.844;2023-03-01T14:26:49;21.20;47.70
35497;DHT22;21609;49.298;6.844;2023-03-01T14:29:35;21.20;47.70
35497;DHT22;21609;49.298;6.844;2023-03-01T14:32:11;21.20;47.50
35497;DHT22;21609;49.298;6.844;2023-03-01T14:34:43;21.30;47.70
35497;DHT22;21609;49.298;6.844;2023-03-01T14:37:22;21.30;47.40
35497;DHT22;21609;49.298;6.844;2023-03-01T14:39:49;21.10;44.80
35497;DHT22;21609;49.298;6.844;2023-03-01T14:42:15;21.00;43.30
35497;DHT22;21609;49.298;6.844;2023-03-01T14:44:43;20.90;45.40
35497;DHT22;21609;49.298;6.844;2023-03-01T14:47:14;21.10;46.50
35497;DHT22;21609;49.298;6.844;2023-03-01T14:49:41;21.20;46.80
35497;DHT22;21609;49.298;6.844;2023-03-01T14:52:18;21.20;46.70
35497;DHT22;21609;49.298;6.844;2023-03-01T14:54:48;21.20;45.80
35497;DHT22;21609;49.298;6.844;2023-03-01T14:57:17;21.10;44.20
35497;DHT22;21609;49.298;6.844;2023-03-01T14:59:44;21.00;44.40
35497;DHT22;21609;49.298;6.844;2023-03-01T15:02:18;21.00;45.40
35497;DHT22;21609;49.298;6.844;2023-03-01T15:04:47;21.00;45.50
35497;DHT22;21609;49.298;6.844;2023-03-01T15:07:14;21.00;45.40
35497;DHT22;21609;49.298;6.844;2023-03-01T15:09:40;20.90;45.40
35497;DHT22;21609;49.298;6.844;2023-03-01T15:12:45;20.90;45.40
35497;DHT22;21609;49.298;6.844;2023-03-01T15:17:58;20.80;44.80
35497;DHT22;21609;49.298;6.844;2023-03-01T15:20:26;20.80;45.10
35497;DHT22;21609;49.298;6.844;2023-03-01T15:22:53;20.80;45.20
35497;DHT22;21609;49.298;6.844;2023-03-01T15:25:22;20.70;45.40
35497;DHT22;21609;49.298;6.844;2023-03-01T15:27:50;20.70;45.20
35497;DHT22;21609;49.298;6.844;2023-03-01T15:30:30;20.60;45.50
35497;DHT22;21609;49.298;6.844;2023-03-01T15:35:53;20.50;44.40
35497;DHT22;21609;49.298;6.844;2023-03-01T15:40:50;20.40;44.50
35497;DHT22;21609;49.298;6.844;2023-03-01T15:43:40;20.40;44.70
35497;DHT22;21609;49.298;6.844;2023-03-01T15:48:47;20.20;44.70
35497;DHT22;21609;49.298;6.844;2023-03-01T15:51:15;20.20;44.90
35497;DHT22;21609;49.298;6.844;2023-03-01T15:53:43;20.10;44.70
35497;DHT22;21609;49.298;6.844;2023-03-01T15:56:10;20.10;44.70
35497;DHT22;21609;49.298;6.844;2023-03-01T15:58:36;20.10;45.00
35497;DHT22;21609;49.298;6.844;2023-03-01T16:01:01;20.00;45.00
35497;DHT22;21609;49.298;6.844;2023-03-01T16:03:27;20.00;45.00
35497;DHT22;21609;49.298;6.844;2023-03-01T16:05:53;19.90;45.20
35497;DHT22;21609;49.298;6.844;2023-03-01T16:08:19;19.90;45.40
35497;DHT22;21609;49.298;6.844;2023-03-01T16:10:45;19.90;45.50
35497;DHT22;21609;49.298;6.844;2023-03-01T16:13:11;19.80;45.60
35497;DHT22;21609;49.298;6.844;2023-03-01T16:15:37;19.80;45.70
35497;DHT22;21609;49.298;6.844;2023-03-01T16:18:05;19.70;45.80
35497;DHT22;21609;49.298;6.844;2023-03-01T16:20:31;19.70;46.40
35497;DHT22;21609;49.298;6.844;2023-03-01T16:22:58;19.70;46.00
35497;DHT22;21609;49.298;6.844;2023-03-01T16:25:25;19.60;45.80
35497;DHT22;21609;49.298;6.844;2023-03-01T16:27:51;19.50;45.90
35497;DHT22;21609;49.298;6.844;2023-03-01T16:30:21;19.50;45.90
35497;DHT22;21609;49.298;6.844;2023-03-01T16:32:48;19.50;46.70
35497;DHT22;21609;49.298;6.844;2023-03-01T16:35:16;19.40;46.10
35497;DHT22;21609;49.298;6.844;2023-03-01T16:37:41;19.40;46.20
35497;DHT22;21609;49.298;6.844;2023-03-01T16:40:17;19.30;45.90
35497;DHT22;21609;49.298;6.844;2023-03-01T16:42:43;19.30;46.10
35497;DHT22;21609;49.298;6.844;2023-03-01T16:45:09;19.20;46.20
35497;DHT22;21609;49.298;6.844;2023-03-01T16:47:35;19.20;46.30
35497;DHT22;21609;49.298;6.844;2023-03-01T16:50:00;19.10;46.30
35497;DHT22;21609;49.298;6.844;2023-03-01T16:52:26;19.10;46.30
35497;DHT22;21609;49.298;6.844;2023-03-01T16:54:52;19.00;46.30
35497;DHT22;21609;49.298;6.844;2023-03-01T16:57:17;19.00;46.10
35497;DHT22;21609;49.298;6.844;2023-03-01T16:59:43;19.00;46.30
35497;DHT22;21609;49.298;6.844;2023-03-01T17:02:11;18.90;46.40
35497;DHT22;21609;49.298;6.844;2023-03-01T17:04:38;18.90;46.40
35497;DHT22;21609;49.298;6.844;2023-03-01T17:07:03;18.80;46.20
35497;DHT22;21609;49.298;6.844;2023-03-01T17:09:29;18.80;46.50
35497;DHT22;21609;49.298;6.844;2023-03-01T17:11:55;18.80;46.50
35497;DHT22;21609;49.298;6.844;2023-03-01T17:14:21;18.70;46.50
35497;DHT22;21609;49.298;6.844;2023-03-01T17:16:46;18.70;46.60
35497;DHT22;21609;49.298;6.844;2023-03-01T17:19:12;18.70;46.60
35497;DHT22;21609;49.298;6.844;2023-03-01T17:21:43;18.70;46.70
35497;DHT22;21609;49.298;6.844;2023-03-01T17:24:09;18.60;46.70
35497;DHT22;21609;49.298;6.844;2023-03-01T17:26:34;18.60;46.80
35497;DHT22;21609;49.298;6.844;2023-03-01T17:29:00;18.50;46.60
35497;DHT22;21609;49.298;6.844;2023-03-01T17:31:26;18.60;46.70
35497;DHT22;21609;49.298;6.844;2023-03-01T17:33:52;18.50;46.70
35497;DHT22;21609;49.298;6.844;2023-03-01T17:36:18;18.50;46.60
35497;DHT22;21609;49.298;6.844;2023-03-01T17:38:43;18.50;46.80
35497;DHT22;21609;49.298;6.844;2023-03-01T17:41:10;18.50;47.30
35497;DHT22;21609;49.298;6.844;2023-03-01T17:43:37;18.50;46.90
35497;DHT22;21609;49.298;6.844;2023-03-01T17:46:02;18.40;46.90
35497;DHT22;21609;49.298;6.844;2023-03-01T17:48:28;18.40;46.80
35497;DHT22;21609;49.298;6.844;2023-03-01T17:50:54;18.40;46.80